Gunnison, CO

3:25 PM MDT on October 20, 2014 (GMT -0600)
Taylor St. | Change Station
CLOSE
Current Station
Personal Weather Station
Location: Gunnison, CO
Elevation: 7687 ft
Nearby Weather Stations

Elev 7687 ft 38.54 °N, 106.92 °W | Updated 3 minutes ago

Clear
Clear
66.7 °F
Feels Like 66.7 °F
N
2.2
Wind Variable Wind from East

Today
High -- | Low -- °F
--% Chance of Precip.
Yesterday
High -- | Low -- °F
Precip. -- in
7:21 AM 6:22 PM
Waning Crescent, 9% visible
Pressure 30.23 in
Visibility 10.0 miles
Clouds Clear
Dew Point 44 °F
Humidity 43%
Rainfall 0.00 in
Snow Depth Not available.
UV 4 out of 12
Pollen 1.80 out of 12
Air Quality Not available.
Flu Activity Sporadic
METAR KGUC 202115Z AUTO 03004KT 10SM CLR 18/M01 A3023 RMK AO1

More Conditions Fewer Conditions

Pressure 30.23 in
Visibility 10.0 miles
Clouds Clear
Dew Point 44 °F
Humidity 43%
Rainfall 0.00 in
Snow Depth Not available.
UV 4 out of 12
Pollen 1.80 out of 12
Air Quality Not available.
Flu Activity Sporadic
METAR KGUC 202115Z AUTO 03004KT 10SM CLR 18/M01 A3023 RMK AO1

More Conditions Fewer Conditions

10-Day Weather Forecast

Almanac

Astronomy

Oct. 20, 2014 Rise Set
Actual Time 7:21 AM MDT 6:22 PM MDT
Civil Twilight 6:54 AM MDT 6:49 PM MDT
Nautical Twilight 6:24 AM MDT 7:20 PM MDT
Astronomical Twilight 5:53 AM MDT 7:50 PM MDT
Moon 4:15 AM MDT 4:44 PM MDT
Length of Visible Light 11h 54m
Length of Day
11h 00m
Waning Crescent, 9% of the Moon is Illuminated
Today
Waning Crescent
Oct 23
New
Oct 30
First Quarter
Nov 6
Full
Nov 14
Last Quarter

Today's Extremes

State Highs State Lows

Community

WunderPhotos

Upload Photos

1,763,522 photos uploaded!

WunderBlogs® & News

Nearby

Snow Depth

Station Depth Elevation
Park Cone 0 in 9600 ft
Schofield Pass 0 in 10700 ft
North Lost Trail 0 in 9200 ft
Overland Reservoir 0 in 9880 ft
Kiln 0 in 9600 ft

Earthquake Activity

City Distance Mag. Time & Date
No recent earthquake activity has been reported nearby.
Minimum magnitude displayed is 2.5.

Coastal Water Temperatures

Place Temperature
No Stations Reporting

Nearby Weather Stations